Time;durP1;ratioP1;P1;durP2;ratioP2;P2;SDS_P1;SDS_P2;PMS_P1;PMS_P2;Temp;Humidity;BMP_temperature;BMP_pressure;BME280_temperature;BME280_humidity;BME280_pressure;Samples;Min_cycle;Max_cycle;Signal;HPM_P1;HPM_P2
2023/03/25 00:00:56;;;;;;;13.40;2.58;;;;;;;;;;5002693;28;20042;-78
2023/03/25 00:03:25;;;;;;;14.23;1.95;;;;;;;;;;5003384;28;20053;-79
2023/03/25 00:05:51;;;;;;;12.20;2.08;;;;;;;;;;5003214;28;20121;-80
2023/03/25 00:08:17;;;;;;;11.90;2.22;;;;;;;;;;5005214;28;20042;-79
2023/03/25 00:10:43;;;;;;;14.95;2.50;;;;;;;;;;5005422;28;20046;-79
2023/03/25 00:13:12;;;;;;;10.30;2.05;;;;;;;;;;5003614;28;20042;-77
2023/03/25 00:15:41;;;;;;;12.20;2.42;;;;;;;;;;5007833;28;20077;-78
2023/03/25 00:18:07;;;;;;;12.68;2.35;;;;;;;;;;5027324;28;20555;-79
2023/03/25 00:20:34;;;;;;;14.38;2.35;;;;;;;;;;5008146;28;20085;-79
2023/03/25 00:23:00;;;;;;;15.10;2.75;;;;;;;;;;5002010;28;20042;-78
2023/03/25 00:25:26;;;;;;;8.48;2.05;;;;;;;;;;5002706;28;20074;-79
2023/03/25 00:27:52;;;;;;;12.25;2.17;;;;;;;;;;5000625;28;20038;-78
2023/03/25 00:30:19;;;;;;;10.95;2.65;;;;;;;;;;5001691;28;20523;-79
2023/03/25 00:32:48;;;;;;;9.32;2.58;;;;;;;;;;5003815;28;20130;-79
2023/03/25 00:35:18;;;;;;;15.32;2.60;;;;;;;;;;5004294;28;20050;-79
2023/03/25 00:37:44;;;;;;;12.50;2.88;;;;;;;;;;5003174;28;20050;-78
2023/03/25 00:40:11;;;;;;;12.68;2.50;;;;;;;;;;5003599;28;20050;-79
2023/03/25 00:42:43;;;;;;;8.27;2.50;;;;;;;;;;5003792;28;20073;-79
2023/03/25 00:45:10;;;;;;;11.25;2.50;;;;;;;;;;5003256;28;20094;-79
2023/03/25 00:47:36;;;;;;;11.65;2.22;;;;;;;;;;5002681;28;20042;-79
2023/03/25 00:50:03;;;;;;;10.25;2.65;;;;;;;;;;5002695;28;20042;-78
2023/03/25 00:52:29;;;;;;;10.80;2.55;;;;;;;;;;5003335;28;20046;-79
2023/03/25 00:54:55;;;;;;;8.93;2.28;;;;;;;;;;5002389;28;20047;-79
2023/03/25 00:57:21;;;;;;;8.15;2.72;;;;;;;;;;5002315;28;20113;-78
2023/03/25 00:59:47;;;;;;;9.70;2.90;;;;;;;;;;5000832;28;20082;-78
2023/03/25 01:02:15;;;;;;;10.60;3.10;;;;;;;;;;5000390;28;20109;-79
2023/03/25 01:04:44;;;;;;;9.48;3.17;;;;;;;;;;5001583;28;20080;-78
2023/03/25 01:07:10;;;;;;;12.43;3.55;;;;;;;;;;4984805;28;20047;-79
2023/03/25 01:09:36;;;;;;;8.80;3.42;;;;;;;;;;5004368;28;20493;-79
2023/03/25 01:12:03;;;;;;;11.05;4.05;;;;;;;;;;5010710;28;20042;-78
2023/03/25 01:14:29;;;;;;;13.20;4.10;;;;;;;;;;5016737;28;20073;-79
2023/03/25 01:16:55;;;;;;;12.50;4.07;;;;;;;;;;5013914;28;20057;-79
2023/03/25 01:19:22;;;;;;;10.43;4.30;;;;;;;;;;5015821;28;20042;-78
2023/03/25 01:21:49;;;;;;;10.30;3.90;;;;;;;;;;5018378;28;20050;-78
2023/03/25 01:24:15;;;;;;;9.73;4.68;;;;;;;;;;5005311;28;20077;-79
2023/03/25 01:26:44;;;;;;;10.60;3.72;;;;;;;;;;5001275;28;20088;-79
2023/03/25 01:29:11;;;;;;;10.10;3.88;;;;;;;;;;5000412;28;20074;-80
2023/03/25 01:31:37;;;;;;;11.45;4.13;;;;;;;;;;5000958;28;20053;-79
2023/03/25 01:34:04;;;;;;;12.00;4.45;;;;;;;;;;4993261;28;20096;-78
2023/03/25 01:36:30;;;;;;;9.88;3.80;;;;;;;;;;5002809;28;20069;-79
2023/03/25 01:38:57;;;;;;;12.48;4.50;;;;;;;;;;5003279;28;20038;-79
2023/03/25 01:41:24;;;;;;;10.82;4.00;;;;;;;;;;5003543;28;20042;-78
2023/03/25 01:44:08;;;;;;;10.18;4.05;;;;;;;;;;5002269;28;20117;-78
2023/03/25 01:46:38;;;;;;;12.60;4.13;;;;;;;;;;5003630;28;20042;-79
2023/03/25 01:49:06;;;;;;;14.45;3.80;;;;;;;;;;5002579;28;20496;-79
2023/03/25 01:51:35;;;;;;;12.07;3.90;;;;;;;;;;5002469;28;20104;-79
2023/03/25 01:54:01;;;;;;;13.65;3.80;;;;;;;;;;5001361;28;20054;-78
2023/03/25 01:56:30;;;;;;;12.90;3.88;;;;;;;;;;5000120;28;20038;-80
2023/03/25 01:58:58;;;;;;;11.93;3.90;;;;;;;;;;5006005;28;20043;-79
2023/03/25 02:01:25;;;;;;;12.07;3.60;;;;;;;;;;5006829;28;20061;-79
2023/03/25 02:03:53;;;;;;;12.85;3.88;;;;;;;;;;5009133;28;20046;-79
2023/03/25 02:06:23;;;;;;;9.48;3.20;;;;;;;;;;5003467;28;20050;-79
2023/03/25 02:08:49;;;;;;;11.48;3.22;;;;;;;;;;5002172;28;20070;-79
2023/03/25 02:11:16;;;;;;;10.68;3.45;;;;;;;;;;5003470;28;20043;-79
2023/03/25 02:13:42;;;;;;;13.27;3.05;;;;;;;;;;5001153;28;20066;-79
2023/03/25 02:16:15;;;;;;;14.85;3.45;;;;;;;;;;5000273;28;20051;-79
2023/03/25 02:18:56;;;;;;;14.10;2.83;;;;;;;;;;5001661;28;20053;-77
2023/03/25 02:21:22;;;;;;;16.42;3.30;;;;;;;;;;4993450;28;20055;-78
2023/03/25 02:24:03;;;;;;;15.40;2.97;;;;;;;;;;5003341;28;20061;-78
2023/03/25 02:26:41;;;;;;;12.93;2.97;;;;;;;;;;5000677;28;20038;-79
2023/03/25 02:29:11;;;;;;;14.65;3.35;;;;;;;;;;5003458;28;20049;-79
2023/03/25 02:31:47;;;;;;;17.33;3.00;;;;;;;;;;5002650;28;20053;-79
2023/03/25 02:34:13;;;;;;;15.48;3.08;;;;;;;;;;4996615;28;20432;-78
2023/03/25 02:36:57;;;;;;;15.07;3.15;;;;;;;;;;5002220;28;20052;-78
2023/03/25 02:39:23;;;;;;;13.52;2.60;;;;;;;;;;5001832;28;20042;-80
2023/03/25 02:41:52;;;;;;;13.18;3.05;;;;;;;;;;4989235;28;20050;-79
2023/03/25 02:44:23;;;;;;;16.38;3.15;;;;;;;;;;5011405;28;20050;-78
2023/03/25 02:46:51;;;;;;;18.63;2.90;;;;;;;;;;5016667;28;20058;-77
2023/03/25 02:49:21;;;;;;;18.52;3.42;;;;;;;;;;5020940;28;20030;-78
2023/03/25 02:51:53;;;;;;;14.95;3.15;;;;;;;;;;5020586;28;20109;-79
2023/03/25 02:54:20;;;;;;;13.98;3.10;;;;;;;;;;5020953;28;20061;-78
2023/03/25 02:56:48;;;;;;;18.13;3.30;;;;;;;;;;5011163;28;20043;-79
2023/03/25 02:59:15;;;;;;;17.23;3.03;;;;;;;;;;4988554;28;20050;-79
2023/03/25 03:01:43;;;;;;;13.90;3.00;;;;;;;;;;5004488;28;20105;-78
2023/03/25 03:04:09;;;;;;;15.15;2.92;;;;;;;;;;5002375;28;20150;-78
2023/03/25 03:06:38;;;;;;;14.93;2.97;;;;;;;;;;5002319;28;20046;-77
2023/03/25 03:09:13;;;;;;;17.83;3.22;;;;;;;;;;5002589;28;20046;-79
2023/03/25 03:11:44;;;;;;;15.63;2.83;;;;;;;;;;5003945;28;20081;-79
2023/03/25 03:14:13;;;;;;;13.20;3.00;;;;;;;;;;4999061;28;20053;-78
2023/03/25 03:16:59;;;;;;;17.70;3.30;;;;;;;;;;5001698;28;20051;-79
2023/03/25 03:19:26;;;;;;;19.15;3.30;;;;;;;;;;5009624;28;20054;-78
2023/03/25 03:22:01;;;;;;;16.02;3.20;;;;;;;;;;5002165;28;20065;-79
2023/03/25 03:24:30;;;;;;;20.10;3.58;;;;;;;;;;5003958;28;20047;-79
2023/03/25 03:26:59;;;;;;;20.70;3.20;;;;;;;;;;5002253;28;20082;-78
2023/03/25 03:29:29;;;;;;;14.85;3.15;;;;;;;;;;5004367;28;20065;-79
2023/03/25 03:32:01;;;;;;;18.80;3.58;;;;;;;;;;5002197;28;20106;-77
2023/03/25 03:34:33;;;;;;;19.63;3.28;;;;;;;;;;5000395;28;20045;-78
2023/03/25 03:37:00;;;;;;;16.55;3.72;;;;;;;;;;5001092;28;20053;-78
2023/03/25 03:39:31;;;;;;;16.15;3.70;;;;;;;;;;5004691;28;20408;-79
2023/03/25 03:42:00;;;;;;;17.60;3.05;;;;;;;;;;5003590;28;20054;-79
2023/03/25 03:44:31;;;;;;;11.65;2.60;;;;;;;;;;5003783;28;20061;-79
2023/03/25 03:47:00;;;;;;;18.63;3.13;;;;;;;;;;5005402;28;20042;-79
2023/03/25 03:49:33;;;;;;;18.98;3.05;;;;;;;;;;5001992;28;20069;-80
2023/03/25 03:52:03;;;;;;;13.48;2.90;;;;;;;;;;5003075;28;20042;-79
2023/03/25 03:54:32;;;;;;;18.98;3.20;;;;;;;;;;4999486;28;20042;-78
2023/03/25 03:57:06;;;;;;;18.88;3.25;;;;;;;;;;5001613;28;20186;-79
2023/03/25 03:59:41;;;;;;;20.35;3.33;;;;;;;;;;5001144;28;20184;-80
2023/03/25 04:02:25;;;;;;;17.58;3.05;;;;;;;;;;5000021;28;20039;-79
2023/03/25 04:04:52;;;;;;;20.50;3.63;;;;;;;;;;4999349;28;20101;-79
2023/03/25 04:07:21;;;;;;;17.48;3.75;;;;;;;;;;5003932;28;20046;-78
2023/03/25 04:10:01;;;;;;;17.27;3.28;;;;;;;;;;5003228;28;20045;-79
2023/03/25 04:12:28;;;;;;;15.95;2.88;;;;;;;;;;5012350;28;20073;-78
2023/03/25 04:14:55;;;;;;;18.27;2.88;;;;;;;;;;5011352;28;20088;-79
2023/03/25 04:17:21;;;;;;;17.38;4.07;;;;;;;;;;5009754;28;20046;-79
2023/03/25 04:19:48;;;;;;;16.33;3.50;;;;;;;;;;5009786;28;20125;-79
2023/03/25 04:22:16;;;;;;;16.38;3.28;;;;;;;;;;4987317;28;20117;-80
2023/03/25 04:24:42;;;;;;;19.60;3.55;;;;;;;;;;4998549;28;20035;-78
2023/03/25 04:27:12;;;;;;;18.35;3.63;;;;;;;;;;4999880;28;20051;-78
2023/03/25 04:29:42;;;;;;;15.68;3.50;;;;;;;;;;5002746;28;20185;-79
2023/03/25 04:32:10;;;;;;;18.37;3.53;;;;;;;;;;5002837;28;20069;-79
2023/03/25 04:34:36;;;;;;;15.57;3.35;;;;;;;;;;5000969;28;20048;-79
2023/03/25 04:37:03;;;;;;;16.20;3.30;;;;;;;;;;5002760;28;20050;-78
2023/03/25 04:39:31;;;;;;;17.80;3.75;;;;;;;;;;5000052;28;20046;-79
2023/03/25 04:42:02;;;;;;;16.83;3.75;;;;;;;;;;5003138;28;20042;-78
2023/03/25 04:44:32;;;;;;;18.52;3.50;;;;;;;;;;4999720;28;20042;-78
2023/03/25 04:46:59;;;;;;;15.88;3.85;;;;;;;;;;5002886;28;20055;-79
2023/03/25 04:49:25;;;;;;;18.20;3.72;;;;;;;;;;5003329;28;20046;-79
2023/03/25 04:51:52;;;;;;;17.13;3.97;;;;;;;;;;5002176;28;20481;-79
2023/03/25 04:54:19;;;;;;;16.80;3.08;;;;;;;;;;4999843;28;20119;-78
2023/03/25 04:56:49;;;;;;;15.60;3.17;;;;;;;;;;5000749;28;20088;-78
2023/03/25 04:59:17;;;;;;;19.35;4.10;;;;;;;;;;4998420;28;20054;-78
2023/03/25 05:01:44;;;;;;;14.57;3.40;;;;;;;;;;4993137;28;20054;-78
2023/03/25 05:04:11;;;;;;;16.60;3.60;;;;;;;;;;4996194;28;20046;-79
2023/03/25 05:06:38;;;;;;;13.82;3.47;;;;;;;;;;4984251;28;20038;-79
2023/03/25 05:09:06;;;;;;;21.55;3.97;;;;;;;;;;4986914;28;20057;-78
2023/03/25 05:11:33;;;;;;;18.58;3.80;;;;;;;;;;5007695;28;20112;-79
2023/03/25 05:13:59;;;;;;;13.45;3.88;;;;;;;;;;5008182;28;20058;-79
2023/03/25 05:16:25;;;;;;;17.08;4.10;;;;;;;;;;5004460;28;20058;-79
2023/03/25 05:18:51;;;;;;;18.77;3.88;;;;;;;;;;5001326;28;20047;-79
2023/03/25 05:21:17;;;;;;;18.13;4.00;;;;;;;;;;5000236;28;20045;-78
2023/03/25 05:23:44;;;;;;;16.52;4.22;;;;;;;;;;4998625;28;20049;-79
2023/03/25 05:26:11;;;;;;;16.25;4.20;;;;;;;;;;4999866;28;20050;-78
2023/03/25 05:28:37;;;;;;;19.10;4.38;;;;;;;;;;5000922;28;20038;-79
2023/03/25 05:31:07;;;;;;;16.98;4.10;;;;;;;;;;4998460;28;20540;-79
2023/03/25 05:33:42;;;;;;;15.82;3.92;;;;;;;;;;4999997;28;20051;-78
2023/03/25 05:36:17;;;;;;;17.55;4.47;;;;;;;;;;5007116;28;20046;-78
2023/03/25 05:38:43;;;;;;;15.57;4.13;;;;;;;;;;5001294;28;20392;-78
2023/03/25 05:41:15;;;;;;;16.42;4.85;;;;;;;;;;4999662;28;20057;-79
2023/03/25 05:43:45;;;;;;;17.13;4.57;;;;;;;;;;5003117;28;20043;-79
2023/03/25 05:46:11;;;;;;;15.98;4.68;;;;;;;;;;5001807;28;20052;-79
2023/03/25 05:48:40;;;;;;;15.90;4.78;;;;;;;;;;4992911;28;20035;-79
2023/03/25 05:51:12;;;;;;;15.80;4.72;;;;;;;;;;4990355;28;20057;-79
2023/03/25 05:53:38;;;;;;;14.48;4.53;;;;;;;;;;4998691;28;20051;-79
2023/03/25 05:56:05;;;;;;;17.25;4.85;;;;;;;;;;5010673;28;20085;-77
2023/03/25 05:58:31;;;;;;;17.20;4.72;;;;;;;;;;4995815;28;20038;-79
2023/03/25 06:01:01;;;;;;;13.15;4.60;;;;;;;;;;5000266;28;20112;-78
2023/03/25 06:03:27;;;;;;;12.70;3.80;;;;;;;;;;5002490;28;20113;-79
2023/03/25 06:05:54;;;;;;;11.43;4.10;;;;;;;;;;5000026;28;20054;-79
2023/03/25 06:08:25;;;;;;;14.02;4.30;;;;;;;;;;4984613;28;20039;-79
2023/03/25 06:10:57;;;;;;;12.80;3.72;;;;;;;;;;5001823;28;20130;-79
2023/03/25 06:13:27;;;;;;;15.05;3.75;;;;;;;;;;5002376;28;20125;-80
2023/03/25 06:15:55;;;;;;;12.80;3.95;;;;;;;;;;5004072;28;20134;-79
2023/03/25 06:18:24;;;;;;;11.68;3.63;;;;;;;;;;5003845;28;20049;-79
2023/03/25 06:20:56;;;;;;;14.00;4.00;;;;;;;;;;5004667;28;20457;-78
2023/03/25 06:23:23;;;;;;;17.02;3.70;;;;;;;;;;5003872;28;20136;-79
2023/03/25 06:25:50;;;;;;;11.13;3.20;;;;;;;;;;5005030;28;20050;-79
2023/03/25 06:28:17;;;;;;;13.90;3.42;;;;;;;;;;5009758;28;20070;-79
2023/03/25 06:30:46;;;;;;;13.02;3.03;;;;;;;;;;5007590;28;20057;-78
2023/03/25 06:33:12;;;;;;;11.88;3.60;;;;;;;;;;5005864;28;20043;-79
2023/03/25 06:35:41;;;;;;;11.77;2.80;;;;;;;;;;5011742;28;20042;-78
2023/03/25 06:38:08;;;;;;;16.02;3.00;;;;;;;;;;5005529;28;20077;-79
2023/03/25 06:40:36;;;;;;;16.05;3.30;;;;;;;;;;5005538;28;20069;-79
2023/03/25 06:43:03;;;;;;;16.27;3.45;;;;;;;;;;5004766;28;20436;-78
2023/03/25 06:45:29;;;;;;;13.68;3.35;;;;;;;;;;5007404;28;20042;-81
2023/03/25 06:47:55;;;;;;;12.90;2.85;;;;;;;;;;4998651;28;20117;-79
2023/03/25 06:50:21;;;;;;;16.15;3.08;;;;;;;;;;5005476;28;20107;-79
2023/03/25 06:52:47;;;;;;;12.57;3.20;;;;;;;;;;5001916;28;20470;-79
2023/03/25 06:55:14;;;;;;;16.83;3.50;;;;;;;;;;4988368;28;20042;-79
2023/03/25 06:57:40;;;;;;;14.60;3.30;;;;;;;;;;5005618;28;20054;-78
2023/03/25 07:00:07;;;;;;;14.60;3.22;;;;;;;;;;5007136;28;20451;-79
2023/03/25 07:02:34;;;;;;;15.13;3.08;;;;;;;;;;5004437;28;20042;-79
2023/03/25 07:05:00;;;;;;;14.60;3.67;;;;;;;;;;4996995;28;20042;-79
2023/03/25 07:07:26;;;;;;;16.88;2.83;;;;;;;;;;5003859;28;20046;-79
2023/03/25 07:09:54;;;;;;;14.77;2.75;;;;;;;;;;5002355;28;20101;-80
2023/03/25 07:12:21;;;;;;;14.65;3.00;;;;;;;;;;5003083;28;20038;-79
2023/03/25 07:14:53;;;;;;;13.43;3.10;;;;;;;;;;5003756;28;20050;-79
2023/03/25 07:17:20;;;;;;;13.88;2.83;;;;;;;;;;5005737;28;20392;-79
2023/03/25 07:19:46;;;;;;;17.38;2.90;;;;;;;;;;5006249;28;20389;-78
2023/03/25 07:22:12;;;;;;;14.48;3.05;;;;;;;;;;4986983;28;20125;-78
2023/03/25 07:24:38;;;;;;;17.15;3.10;;;;;;;;;;5004826;28;20101;-79
2023/03/25 07:27:04;;;;;;;17.25;3.25;;;;;;;;;;5003698;28;20053;-79
2023/03/25 07:29:30;;;;;;;18.05;3.15;;;;;;;;;;4996398;28;20042;-79
2023/03/25 07:31:57;;;;;;;22.17;3.67;;;;;;;;;;5002034;28;20053;-78
2023/03/25 07:34:23;;;;;;;15.90;3.22;;;;;;;;;;5000806;28;20054;-80
2023/03/25 07:36:49;;;;;;;16.13;3.28;;;;;;;;;;5003157;28;20034;-79
2023/03/25 07:39:17;;;;;;;17.65;3.20;;;;;;;;;;5008691;28;20026;-79
2023/03/25 07:41:43;;;;;;;20.83;3.42;;;;;;;;;;5007123;28;20101;-79
2023/03/25 07:44:09;;;;;;;16.35;3.70;;;;;;;;;;5004910;28;20052;-79
2023/03/25 07:46:35;;;;;;;16.98;3.78;;;;;;;;;;5004155;28;20489;-79
2023/03/25 07:49:01;;;;;;;22.67;4.10;;;;;;;;;;5003782;28;20131;-79
2023/03/25 07:51:29;;;;;;;20.48;3.78;;;;;;;;;;5002167;28;20559;-79
2023/03/25 07:53:55;;;;;;;21.35;4.47;;;;;;;;;;5003463;28;20487;-81
2023/03/25 07:56:21;;;;;;;20.27;4.35;;;;;;;;;;5004204;28;20058;-78
2023/03/25 07:58:48;;;;;;;22.85;4.80;;;;;;;;;;5004381;28;20053;-79
2023/03/25 08:01:14;;;;;;;17.98;4.28;;;;;;;;;;5001405;28;20115;-79
2023/03/25 08:03:41;;;;;;;17.42;3.67;;;;;;;;;;4997604;28;20038;-80
2023/03/25 08:06:07;;;;;;;16.27;3.25;;;;;;;;;;5000985;28;20073;-80
2023/03/25 08:08:33;;;;;;;16.17;3.75;;;;;;;;;;4997957;28;20042;-79
2023/03/25 08:11:00;;;;;;;18.13;3.35;;;;;;;;;;4996007;28;20034;-79
2023/03/25 08:13:26;;;;;;;22.58;3.55;;;;;;;;;;4996134;28;20114;-80
2023/03/25 08:15:53;;;;;;;20.00;3.58;;;;;;;;;;4995711;28;20101;-80
2023/03/25 08:18:19;;;;;;;18.02;3.40;;;;;;;;;;4999560;28;20117;-80
2023/03/25 08:20:45;;;;;;;17.27;2.85;;;;;;;;;;5000672;28;20038;-79
2023/03/25 08:23:17;;;;;;;20.20;3.42;;;;;;;;;;5002436;28;20516;-79
2023/03/25 08:25:43;;;;;;;17.48;3.30;;;;;;;;;;5000345;28;20156;-78
2023/03/25 08:28:09;;;;;;;23.95;3.75;;;;;;;;;;4993681;28;20042;-80
2023/03/25 08:30:37;;;;;;;19.52;3.72;;;;;;;;;;4994041;28;20039;-79
2023/03/25 08:33:03;;;;;;;24.50;3.65;;;;;;;;;;4994484;28;20047;-80
2023/03/25 08:35:30;;;;;;;24.27;3.60;;;;;;;;;;4996508;28;20068;-79
2023/03/25 08:38:00;;;;;;;19.45;3.00;;;;;;;;;;4999554;28;20050;-80
2023/03/25 08:40:26;;;;;;;17.38;3.53;;;;;;;;;;5000920;28;20512;-80
2023/03/25 08:42:52;;;;;;;20.23;3.17;;;;;;;;;;4996786;28;20484;-80
2023/03/25 08:45:18;;;;;;;22.77;3.33;;;;;;;;;;5005723;28;20042;-79
2023/03/25 08:47:45;;;;;;;21.27;4.10;;;;;;;;;;5003356;28;20052;-79
2023/03/25 08:50:11;;;;;;;20.63;3.70;;;;;;;;;;5009985;28;20066;-80
2023/03/25 08:52:37;;;;;;;21.00;3.97;;;;;;;;;;5004582;28;20061;-79
2023/03/25 08:55:06;;;;;;;24.08;3.65;;;;;;;;;;4999197;28;20045;-79
2023/03/25 08:57:34;;;;;;;22.13;3.90;;;;;;;;;;5002558;28;20074;-79
2023/03/25 09:00:00;;;;;;;23.65;3.65;;;;;;;;;;5002219;28;20078;-80
2023/03/25 09:02:26;;;;;;;26.63;4.28;;;;;;;;;;5002898;28;20046;-78
2023/03/25 09:04:53;;;;;;;22.30;5.03;;;;;;;;;;4986613;28;20134;-79
2023/03/25 09:07:19;;;;;;;19.08;4.65;;;;;;;;;;5001696;28;20039;-78
2023/03/25 09:09:45;;;;;;;22.60;4.90;;;;;;;;;;5003902;28;20073;-80
2023/03/25 09:12:11;;;;;;;24.70;3.90;;;;;;;;;;4998070;28;20042;-79
2023/03/25 09:14:38;;;;;;;21.95;3.63;;;;;;;;;;5003801;28;20460;-79
2023/03/25 09:17:09;;;;;;;21.88;4.45;;;;;;;;;;4991582;28;20050;-80
2023/03/25 09:19:36;;;;;;;15.13;3.80;;;;;;;;;;4996884;28;20050;-79
2023/03/25 09:22:03;;;;;;;23.77;4.32;;;;;;;;;;5001213;28;20308;-78
2023/03/25 09:24:32;;;;;;;19.42;4.60;;;;;;;;;;5001056;28;20077;-79
2023/03/25 09:26:59;;;;;;;18.40;4.15;;;;;;;;;;5004725;28;20046;-79
2023/03/25 09:29:25;;;;;;;19.70;3.60;;;;;;;;;;5005053;28;20047;-80
2023/03/25 09:31:51;;;;;;;19.58;3.00;;;;;;;;;;5005874;28;20182;-80
2023/03/25 09:34:17;;;;;;;18.63;3.22;;;;;;;;;;4986203;28;20053;-80
2023/03/25 09:36:46;;;;;;;18.52;3.05;;;;;;;;;;5003210;28;20121;-79
2023/03/25 09:39:12;;;;;;;17.35;3.05;;;;;;;;;;5003995;28;20049;-80
2023/03/25 09:41:51;;;;;;;14.93;3.03;;;;;;;;;;5003078;28;20481;-79
2023/03/25 09:44:35;;;;;;;18.70;3.60;;;;;;;;;;5004671;28;20046;-79
2023/03/25 09:47:02;;;;;;;16.23;3.30;;;;;;;;;;5003336;28;20053;-79
2023/03/25 09:49:37;;;;;;;22.23;4.07;;;;;;;;;;5012778;28;20129;-80
2023/03/25 09:52:04;;;;;;;21.55;3.83;;;;;;;;;;5007461;28;20049;-80
2023/03/25 09:54:35;;;;;;;22.10;3.63;;;;;;;;;;5008453;28;20042;-81
2023/03/25 09:57:05;;;;;;;19.40;3.65;;;;;;;;;;5006479;28;20035;-79
2023/03/25 09:59:43;;;;;;;22.67;3.72;;;;;;;;;;5006694;28;20050;-78
2023/03/25 10:02:32;;;;;;;24.02;3.67;;;;;;;;;;5006603;28;20092;-78
2023/03/25 10:05:13;;;;;;;22.15;3.90;;;;;;;;;;4993252;28;20046;-77
2023/03/25 10:07:46;;;;;;;18.85;3.38;;;;;;;;;;4999654;28;20524;-80
2023/03/25 10:10:16;;;;;;;22.73;3.92;;;;;;;;;;5000325;28;20054;-79
2023/03/25 10:12:55;;;;;;;15.20;3.13;;;;;;;;;;5004044;28;20042;-79
2023/03/25 10:15:21;;;;;;;20.02;3.72;;;;;;;;;;5006118;28;20043;-79
2023/03/25 10:18:06;;;;;;;22.55;4.50;;;;;;;;;;5005217;28;20393;-79
2023/03/25 10:20:53;;;;;;;20.67;4.57;;;;;;;;;;5002745;28;20077;-78
2023/03/25 10:23:37;;;;;;;17.73;3.03;;;;;;;;;;5001327;28;20046;-79
2023/03/25 10:26:05;;;;;;;18.98;3.13;;;;;;;;;;5002668;28;20125;-79
2023/03/25 10:28:33;;;;;;;15.88;3.38;;;;;;;;;;5003246;28;20038;-79
2023/03/25 10:31:00;;;;;;;18.58;3.05;;;;;;;;;;5003607;28;20081;-79
2023/03/25 10:33:35;;;;;;;17.70;2.90;;;;;;;;;;5003153;28;20096;-79
2023/03/25 10:36:02;;;;;;;19.45;3.40;;;;;;;;;;5005496;28;20475;-79
2023/03/25 10:38:29;;;;;;;18.20;3.00;;;;;;;;;;5005086;28;20046;-80
2023/03/25 10:41:11;;;;;;;19.17;2.92;;;;;;;;;;5002183;28;20042;-78
2023/03/25 10:43:37;;;;;;;;;;;;;;;;;;5002558;28;20112;-79
2023/03/25 10:46:03;;;;;;;14.70;2.97;;;;;;;;;;5002757;28;19925;-79
2023/03/25 10:48:30;;;;;;;24.05;3.58;;;;;;;;;;5003301;28;20046;-78
2023/03/25 10:50:59;;;;;;;19.75;3.20;;;;;;;;;;5003929;28;20038;-79
2023/03/25 10:53:27;;;;;;;20.83;3.10;;;;;;;;;;5003636;28;20050;-79
2023/03/25 10:56:07;;;;;;;17.83;3.28;;;;;;;;;;4994771;28;20058;-78
2023/03/25 10:58:34;;;;;;;21.00;3.20;;;;;;;;;;5003983;28;20053;-79
2023/03/25 11:01:02;;;;;;;18.88;3.22;;;;;;;;;;5008443;28;20354;-79
2023/03/25 11:03:31;;;;;;;20.65;3.55;;;;;;;;;;5011690;28;20110;-80
2023/03/25 11:05:57;;;;;;;19.52;3.35;;;;;;;;;;5011426;28;20074;-79
2023/03/25 11:08:24;;;;;;;20.27;3.65;;;;;;;;;;5003523;28;20089;-79
2023/03/25 11:10:55;;;;;;;17.92;3.75;;;;;;;;;;5001672;28;20511;-79
2023/03/25 11:13:21;;;;;;;;;;;;;;;;;;5001547;28;20051;-79
2023/03/25 11:15:48;;;;;;;17.88;2.72;;;;;;;;;;5004826;28;19922;-79
2023/03/25 11:18:24;;;;;;;19.55;3.50;;;;;;;;;;5003204;28;20115;-78
2023/03/25 11:21:01;;;;;;;17.33;2.78;;;;;;;;;;5000860;28;20053;-79
2023/03/25 11:23:32;;;;;;;14.52;2.40;;;;;;;;;;5002983;28;20046;-79
2023/03/25 11:26:02;;;;;;;16.02;2.58;;;;;;;;;;4999043;28;20042;-79
2023/03/25 11:28:36;;;;;;;13.50;2.73;;;;;;;;;;4997995;28;20042;-79
2023/03/25 11:31:22;;;;;;;16.42;3.10;;;;;;;;;;5004929;28;20300;-79
2023/03/25 11:34:06;;;;;;;16.73;3.20;;;;;;;;;;5003590;28;20461;-79
2023/03/25 11:36:36;;;;;;;15.05;2.45;;;;;;;;;;5003073;28;20116;-79
2023/03/25 11:39:09;;;;;;;17.08;2.75;;;;;;;;;;5001591;28;20050;-79
2023/03/25 11:41:36;;;;;;;18.52;2.85;;;;;;;;;;5001405;28;20057;-79
2023/03/25 11:44:04;;;;;;;19.88;2.90;;;;;;;;;;4987862;28;20417;-79
2023/03/25 11:46:30;;;;;;;19.48;3.10;;;;;;;;;;5014337;28;20065;-78
2023/03/25 11:48:56;;;;;;;18.15;3.70;;;;;;;;;;5002332;28;20042;-79
2023/03/25 11:51:33;;;;;;;16.60;2.83;;;;;;;;;;4999889;28;20097;-79
2023/03/25 11:54:02;;;;;;;18.25;3.42;;;;;;;;;;4993192;28;20405;-78
2023/03/25 11:56:36;;;;;;;16.65;2.88;;;;;;;;;;4997390;28;20035;-78
2023/03/25 11:59:03;;;;;;;21.15;3.63;;;;;;;;;;4997105;28;20053;-78
2023/03/25 12:01:41;;;;;;;22.25;3.40;;;;;;;;;;4997282;28;20050;-78
2023/03/25 12:04:12;;;;;;;15.02;3.22;;;;;;;;;;4993580;28;20045;-78
2023/03/25 12:06:51;;;;;;;21.88;2.83;;;;;;;;;;4994137;28;20070;-78
2023/03/25 12:09:17;;;;;;;16.33;3.03;;;;;;;;;;4994305;28;20053;-79
2023/03/25 12:11:46;;;;;;;17.58;3.13;;;;;;;;;;4994742;28;20042;-78
2023/03/25 12:14:32;;;;;;;23.50;2.80;;;;;;;;;;4995329;28;20046;-78
2023/03/25 12:17:04;;;;;;;19.45;3.20;;;;;;;;;;4994585;28;20054;-79
2023/03/25 12:19:50;;;;;;;19.90;3.00;;;;;;;;;;4992806;28;20065;-79
2023/03/25 12:22:33;;;;;;;17.70;3.38;;;;;;;;;;4998216;28;20049;-79
2023/03/25 12:25:08;;;;;;;20.17;3.03;;;;;;;;;;4994248;28;20042;-78
2023/03/25 12:27:37;;;;;;;18.20;3.03;;;;;;;;;;4994946;28;20038;-78
2023/03/25 12:30:12;;;;;;;21.25;3.22;;;;;;;;;;4995762;28;20058;-80
2023/03/25 12:32:45;;;;;;;17.88;3.42;;;;;;;;;;4998520;28;20038;-79
2023/03/25 12:35:20;;;;;;;19.23;3.08;;;;;;;;;;4998104;28;20042;-78
2023/03/25 12:38:05;;;;;;;14.75;2.92;;;;;;;;;;4995655;28;20042;-77
2023/03/25 12:40:50;;;;;;;14.00;3.08;;;;;;;;;;4991262;28;20408;-78
2023/03/25 12:43:24;;;;;;;15.68;3.20;;;;;;;;;;4996776;28;20038;-79
2023/03/25 12:46:02;;;;;;;16.33;3.38;;;;;;;;;;4997863;28;20050;-79
2023/03/25 12:48:32;;;;;;;14.35;2.80;;;;;;;;;;4984990;28;20878;-78
2023/03/25 12:50:58;;;;;;;14.45;2.78;;;;;;;;;;4984007;28;20080;-78
2023/03/25 12:53:35;;;;;;;14.73;2.63;;;;;;;;;;4991302;28;20046;-79
2023/03/25 12:56:01;;;;;;;18.08;3.05;;;;;;;;;;4988001;28;20074;-79
2023/03/25 12:58:46;;;;;;;21.40;3.42;;;;;;;;;;4992528;28;20156;-79
2023/03/25 13:01:12;;;;;;;22.23;3.38;;;;;;;;;;4996778;28;20051;-78
2023/03/25 13:03:56;;;;;;;15.15;2.90;;;;;;;;;;4993191;28;20084;-77
2023/03/25 13:06:33;;;;;;;19.20;3.60;;;;;;;;;;4995535;28;20070;-79
2023/03/25 13:09:05;;;;;;;13.90;2.53;;;;;;;;;;4983687;28;20053;-78
2023/03/25 13:11:35;;;;;;;15.43;2.72;;;;;;;;;;4995201;28;20045;-78
2023/03/25 13:14:05;;;;;;;13.45;2.60;;;;;;;;;;4995391;28;20050;-79
2023/03/25 13:16:34;;;;;;;14.43;2.85;;;;;;;;;;4998228;28;20104;-78
2023/03/25 13:19:03;;;;;;;14.88;2.63;;;;;;;;;;5001161;28;20102;-79
2023/03/25 13:21:32;;;;;;;17.95;2.80;;;;;;;;;;4999743;28;20057;-78
2023/03/25 13:24:00;;;;;;;17.27;2.90;;;;;;;;;;4998642;28;20054;-79
2023/03/25 13:26:28;;;;;;;16.08;3.13;;;;;;;;;;4994378;28;20058;-79
2023/03/25 13:28:57;;;;;;;14.57;2.42;;;;;;;;;;4995278;28;20042;-79
2023/03/25 13:31:28;;;;;;;18.33;3.08;;;;;;;;;;4994108;28;20054;-78
2023/03/25 13:34:01;;;;;;;16.02;3.05;;;;;;;;;;4995157;28;20049;-77
2023/03/25 13:36:32;;;;;;;17.90;2.30;;;;;;;;;;4992990;28;20073;-78
2023/03/25 13:39:17;;;;;;;17.07;2.63;;;;;;;;;;4998297;28;20050;-78
2023/03/25 13:41:44;;;;;;;17.35;2.83;;;;;;;;;;4998371;28;20305;-79
2023/03/25 13:44:16;;;;;;;15.50;2.67;;;;;;;;;;5000367;28;20042;-79
2023/03/25 13:46:51;;;;;;;15.38;2.90;;;;;;;;;;4991136;28;20490;-79
2023/03/25 13:49:17;;;;;;;12.38;2.47;;;;;;;;;;4998458;28;20043;-79
2023/03/25 13:51:43;;;;;;;14.60;2.28;;;;;;;;;;4998195;28;20046;-79
2023/03/25 13:54:14;;;;;;;13.65;2.22;;;;;;;;;;4999114;28;20161;-78
2023/03/25 13:56:41;;;;;;;13.57;2.80;;;;;;;;;;4999292;28;20082;-78
2023/03/25 13:59:07;;;;;;;11.43;2.45;;;;;;;;;;5001303;28;20085;-78
2023/03/25 14:01:39;;;;;;;13.40;2.58;;;;;;;;;;4998953;28;20055;-78
2023/03/25 14:04:14;;;;;;;13.75;2.28;;;;;;;;;;5000668;28;20050;-79
2023/03/25 14:06:40;;;;;;;14.80;2.60;;;;;;;;;;4994121;28;20125;-80
2023/03/25 14:09:25;;;;;;;12.00;2.45;;;;;;;;;;4997962;28;20039;-78
2023/03/25 14:12:00;;;;;;;12.55;2.50;;;;;;;;;;4990438;28;20042;-79
2023/03/25 14:14:28;;;;;;;11.50;2.20;;;;;;;;;;4993628;28;20046;-78
2023/03/25 14:16:57;;;;;;;16.80;2.70;;;;;;;;;;5001246;28;20072;-79
2023/03/25 14:19:31;;;;;;;14.25;2.50;;;;;;;;;;5000880;28;20496;-79
2023/03/25 14:21:58;;;;;;;15.10;2.55;;;;;;;;;;4999959;28;20102;-79
2023/03/25 14:24:25;;;;;;;15.82;2.60;;;;;;;;;;4999433;28;20045;-79
2023/03/25 14:26:58;;;;;;;11.43;2.28;;;;;;;;;;4997793;28;20078;-79
2023/03/25 14:29:44;;;;;;;17.98;2.80;;;;;;;;;;4997340;28;20484;-78
2023/03/25 14:32:17;;;;;;;15.30;2.70;;;;;;;;;;4994389;28;20501;-81
2023/03/25 14:34:45;;;;;;;12.68;2.38;;;;;;;;;;4989376;28;20056;-79
2023/03/25 14:37:16;;;;;;;16.35;2.78;;;;;;;;;;4997488;28;20046;-80
2023/03/25 14:39:44;;;;;;;18.42;2.50;;;;;;;;;;4993525;28;20054;-79
2023/03/25 14:42:23;;;;;;;10.05;2.35;;;;;;;;;;4989359;28;20129;-78
2023/03/25 14:44:53;;;;;;;16.17;2.70;;;;;;;;;;4992198;28;20473;-79